createdAt,value
2019-04-20T00:02:22.056Z,95.50
2019-04-20T00:04:49.517Z,96.00
2019-04-20T00:07:25.707Z,96.30
2019-04-20T00:09:57.523Z,96.70
2019-04-20T00:12:29.832Z,97.20
2019-04-20T00:14:49.997Z,97.80
2019-04-20T00:17:19.967Z,97.90
2019-04-20T00:19:53.833Z,98.30
2019-04-20T00:22:24.603Z,98.30
2019-04-20T00:25:04.290Z,98.20
2019-04-20T00:27:49.984Z,98.30
2019-04-20T00:30:26.227Z,98.40
2019-04-20T00:32:47.839Z,98.20
2019-04-20T00:35:02.132Z,98.00
2019-04-20T00:37:31.865Z,98.00
2019-04-20T00:40:01.639Z,97.60
2019-04-20T00:42:39.091Z,97.30
2019-04-20T00:45:08.454Z,96.80
2019-04-20T00:47:42.988Z,96.40
2019-04-20T00:50:19.898Z,96.50
2019-04-20T00:52:47.065Z,96.20
2019-04-20T00:55:02.364Z,96.20
2019-04-20T00:57:41.889Z,96.50
2019-04-20T01:00:18.026Z,96.40
2019-04-20T01:02:45.432Z,96.40
2019-04-20T01:05:17.972Z,96.40
2019-04-20T01:07:58.111Z,96.30
2019-04-20T01:10:23.713Z,96.50
2019-04-20T01:13:01.380Z,96.60
2019-04-20T01:15:32.671Z,96.70
2019-04-20T01:17:53.141Z,96.80
2019-04-20T01:20:22.671Z,96.90
2019-04-20T01:23:00.080Z,96.80
2019-04-20T01:25:30.060Z,96.90
2019-04-20T01:28:07.732Z,96.90
2019-04-20T01:30:30.185Z,97.20
2019-04-20T01:33:11.342Z,97.30
2019-04-20T01:35:40.820Z,97.60
2019-04-20T01:38:12.453Z,98.00
2019-04-20T01:40:25.222Z,98.10
2019-04-20T01:42:55.350Z,98.20
2019-04-20T01:45:30.761Z,98.50
2019-04-20T01:47:57.666Z,99.20
2019-04-20T01:50:28.478Z,99.50
2019-04-20T01:53:08.988Z,99.90
2019-04-20T01:55:43.643Z,99.90
2019-04-20T01:58:17.583Z,99.90
2019-04-20T02:00:45.222Z,99.90
2019-04-20T02:03:34.188Z,99.90
2019-04-20T02:06:07.424Z,99.90
2019-04-20T02:08:32.739Z,99.90
2019-04-20T02:11:04.351Z,99.90
2019-04-20T02:13:36.130Z,99.90
2019-04-20T02:16:11.456Z,99.90
2019-04-20T02:18:44.170Z,99.90
2019-04-20T02:21:22.030Z,99.90
2019-04-20T02:23:43.330Z,99.90
2019-04-20T02:26:02.969Z,99.90
2019-04-20T02:28:56.925Z,99.90
2019-04-20T02:31:47.607Z,99.90
2019-04-20T02:34:07.006Z,99.90
2019-04-20T02:36:51.519Z,99.90
2019-04-20T02:41:51.086Z,99.90
2019-04-20T02:46:46.908Z,99.90
2019-04-20T02:51:47.035Z,99.90
2019-04-20T02:56:47.692Z,99.90
2019-04-20T02:59:47.249Z,99.90
2019-04-20T03:01:36.480Z,99.90
2019-04-20T03:03:52.566Z,99.90
2019-04-20T03:06:30.783Z,99.90
2019-04-20T03:09:09.046Z,99.90
2019-04-20T03:11:46.483Z,99.90
2019-04-20T03:14:09.248Z,99.90
2019-04-20T03:16:35.657Z,99.90
2019-04-20T03:19:03.103Z,99.90
2019-04-20T03:21:43.202Z,99.90
2019-04-20T03:24:23.812Z,99.90
2019-04-20T03:26:40.344Z,99.90
2019-04-20T03:29:37.077Z,99.90
2019-04-20T03:32:57.344Z,99.90
2019-04-20T03:37:28.087Z,99.90
2019-04-20T03:39:46.430Z,99.90
2019-04-20T03:42:00.462Z,99.90
2019-04-20T03:44:32.105Z,99.90
2019-04-20T03:47:03.445Z,99.90
2019-04-20T03:49:55.032Z,99.90
2019-04-20T03:52:27.825Z,99.90
2019-04-20T03:55:10.275Z,99.90
2019-04-20T03:57:52.937Z,99.90
2019-04-20T04:00:26.467Z,99.90
2019-04-20T04:03:12.668Z,99.90
2019-04-20T04:05:45.921Z,99.90
2019-04-20T04:08:05.147Z,99.90
2019-04-20T04:10:46.065Z,99.90
2019-04-20T04:13:16.798Z,99.90
2019-04-20T04:15:51.988Z,99.90
2019-04-20T04:18:25.996Z,99.90
2019-04-20T04:20:59.046Z,99.90
2019-04-20T04:23:36.697Z,99.90
2019-04-20T04:28:36.958Z,99.90
2019-04-20T04:31:12.024Z,99.90
2019-04-20T04:36:10.101Z,99.90
2019-04-20T04:38:57.103Z,99.90
2019-04-20T04:41:31.016Z,99.90
2019-04-20T04:43:58.870Z,99.90
2019-04-20T04:46:12.459Z,99.90
2019-04-20T04:48:45.695Z,99.90
2019-04-20T04:51:19.670Z,99.90
2019-04-20T04:53:50.769Z,99.90
2019-04-20T04:56:17.021Z,99.90
2019-04-20T04:58:42.602Z,99.90
2019-04-20T05:01:18.501Z,99.90
2019-04-20T05:04:02.888Z,99.90
2019-04-20T05:06:26.422Z,99.90
2019-04-20T05:08:49.869Z,99.90
2019-04-20T05:11:15.082Z,99.90
2019-04-20T05:13:50.612Z,99.90
2019-04-20T05:16:37.377Z,99.90
2019-04-20T05:19:09.381Z,99.90
2019-04-20T05:21:38.886Z,99.90
2019-04-20T05:24:07.559Z,99.90
2019-04-20T05:26:53.080Z,99.90
2019-04-20T05:29:06.685Z,99.90
2019-04-20T05:31:36.102Z,99.90
2019-04-20T05:34:20.589Z,99.90
2019-04-20T05:36:50.351Z,99.90
2019-04-20T05:41:50.393Z,99.70
2019-04-20T05:44:16.989Z,96.80
2019-04-20T05:46:56.217Z,95.20
2019-04-20T05:49:28.717Z,93.60
2019-04-20T05:51:54.709Z,92.30
2019-04-20T05:54:31.086Z,91.40
2019-04-20T05:56:52.496Z,88.70
2019-04-20T05:59:19.159Z,85.80
2019-04-20T06:01:59.197Z,84.80
2019-04-20T06:04:30.094Z,82.70
2019-04-20T06:06:54.876Z,82.60
2019-04-20T06:09:28.032Z,85.30
2019-04-20T06:12:07.771Z,89.60
2019-04-20T06:14:39.377Z,92.20
2019-04-20T06:17:15.963Z,94.60
2019-04-20T06:19:39.572Z,96.60
2019-04-20T06:22:28.459Z,97.30
2019-04-20T06:24:59.149Z,97.80
2019-04-20T06:27:23.942Z,98.60
2019-04-20T06:29:49.262Z,99.40
2019-04-20T06:32:30.211Z,99.90
2019-04-20T06:34:48.973Z,99.90
2019-04-20T06:37:16.320Z,99.90
2019-04-20T06:39:54.641Z,99.90
2019-04-20T06:42:18.123Z,99.90
2019-04-20T06:44:48.225Z,99.90
2019-04-20T06:47:44.158Z,99.90
2019-04-20T06:49:54.733Z,99.90
2019-04-20T06:55:28.896Z,99.90
2019-04-20T06:57:45.477Z,99.90
2019-04-20T07:00:15.695Z,99.90
2019-04-20T07:02:44.722Z,99.90
2019-04-20T07:05:22.323Z,99.90
2019-04-20T07:07:47.596Z,99.90
2019-04-20T07:10:19.372Z,99.90
2019-04-20T07:12:40.918Z,99.90
2019-04-20T07:15:14.937Z,99.90
2019-04-20T07:17:55.024Z,99.90
2019-04-20T07:20:18.473Z,99.90
2019-04-20T07:22:51.048Z,99.30
2019-04-20T07:25:26.214Z,98.40
2019-04-20T07:27:54.601Z,98.10
2019-04-20T07:30:21.484Z,98.90
2019-04-20T07:33:08.908Z,98.90
2019-04-20T07:35:25.108Z,97.40
2019-04-20T07:38:24.330Z,97.40
2019-04-20T07:40:25.771Z,98.30
2019-04-20T07:43:00.239Z,97.00
2019-04-20T07:45:33.245Z,97.70
2019-04-20T07:48:07.470Z,97.20
2019-04-20T07:50:26.541Z,97.30
2019-04-20T07:52:51.663Z,97.30
2019-04-20T07:55:40.513Z,96.20
2019-04-20T07:57:53.835Z,94.60
2019-04-20T08:00:44.174Z,95.30
2019-04-20T08:03:24.689Z,93.10
2019-04-20T08:05:45.697Z,93.10
2019-04-20T08:08:18.302Z,92.70
2019-04-20T08:10:51.637Z,92.20
2019-04-20T08:13:32.962Z,91.90
2019-04-20T08:16:01.578Z,90.20
2019-04-20T08:18:27.688Z,88.90
2019-04-20T08:20:52.392Z,90.30
2019-04-20T08:23:23.342Z,90.50
2019-04-20T08:25:48.740Z,87.90
2019-04-20T08:28:06.375Z,90.50
2019-04-20T08:30:53.784Z,88.30
2019-04-20T08:33:24.490Z,89.60
2019-04-20T08:36:04.725Z,88.80
2019-04-20T08:39:00.135Z,87.30
2019-04-20T08:40:57.443Z,84.70
2019-04-20T08:43:43.782Z,84.90
2019-04-20T08:45:58.761Z,84.10
2019-04-20T08:48:33.265Z,83.70
2019-04-20T08:50:57.808Z,78.80
2019-04-20T08:53:31.745Z,81.90
2019-04-20T08:55:54.013Z,79.30
2019-04-20T08:58:11.422Z,74.30
2019-04-20T09:00:48.583Z,67.50
2019-04-20T09:03:17.981Z,58.80
2019-04-20T09:05:51.974Z,54.40
2019-04-20T09:08:18.882Z,50.70
2019-04-20T09:11:03.884Z,50.60
2019-04-20T09:13:24.583Z,45.40
2019-04-20T09:15:42.626Z,44.80
2019-04-20T09:18:25.986Z,45.10
2019-04-20T09:20:55.861Z,41.60
2019-04-20T09:23:40.889Z,42.40
2019-04-20T09:26:15.048Z,41.30
2019-04-20T09:28:38.420Z,41.00
2019-04-20T09:31:18.196Z,41.40
2019-04-20T09:34:10.447Z,39.80
2019-04-20T09:36:44.566Z,40.30
2019-04-20T09:39:15.984Z,39.50
2019-04-20T09:41:58.885Z,38.50
2019-04-20T09:44:08.962Z,37.30
2019-04-20T09:46:44.188Z,37.10
2019-04-20T09:49:18.887Z,36.70
2019-04-20T09:51:55.300Z,36.40
2019-04-20T09:54:25.794Z,36.70
2019-04-20T09:56:59.238Z,36.70
2019-04-20T09:59:28.868Z,36.20
2019-04-20T10:01:44.590Z,34.30
2019-04-20T10:04:08.308Z,33.90
2019-04-20T10:06:37.708Z,34.40
2019-04-20T10:09:09.623Z,34.00
2019-04-20T10:11:41.672Z,34.00
2019-04-20T10:14:08.305Z,33.60
2019-04-20T10:16:37.908Z,32.80
2019-04-20T10:19:09.986Z,33.30
2019-04-20T10:21:38.213Z,33.60
2019-04-20T10:24:08.557Z,34.30
2019-04-20T10:26:37.056Z,33.40
2019-04-20T10:29:07.889Z,33.10
2019-04-20T10:31:42.654Z,32.20
2019-04-20T10:34:07.416Z,32.20
2019-04-20T10:36:38.050Z,31.40
2019-04-20T10:39:10.836Z,31.30
2019-04-20T10:41:48.306Z,29.80
2019-04-20T10:44:09.514Z,31.50
2019-04-20T10:46:38.860Z,31.10
2019-04-20T10:49:08.282Z,33.90
2019-04-20T10:51:37.803Z,30.40
2019-04-20T10:54:06.917Z,31.50
2019-04-20T10:56:35.317Z,31.20
2019-04-20T10:59:03.745Z,32.10
2019-04-20T11:01:32.129Z,31.40
2019-04-20T11:04:00.793Z,30.60
2019-04-20T11:06:29.281Z,31.10
2019-04-20T11:08:58.549Z,32.20
2019-04-20T11:11:30.037Z,31.50
2019-04-20T11:13:59.855Z,31.40
2019-04-20T11:16:28.524Z,30.30
2019-04-20T11:18:57.810Z,28.30
2019-04-20T11:21:28.147Z,28.80
2019-04-20T11:23:56.642Z,29.60
2019-04-20T11:26:26.371Z,29.90
2019-04-20T11:28:55.898Z,30.00
2019-04-20T11:31:26.817Z,29.80
2019-04-20T11:33:56.223Z,32.00
2019-04-20T11:36:25.309Z,30.20
2019-04-20T11:38:54.414Z,28.90
2019-04-20T11:41:28.665Z,29.80
2019-04-20T11:43:55.641Z,30.40
2019-04-20T11:46:24.962Z,28.80
2019-04-20T11:48:53.476Z,27.80
2019-04-20T11:51:23.269Z,27.30
2019-04-20T11:53:52.301Z,27.00
2019-04-20T11:56:28.050Z,27.50
2019-04-20T11:58:51.442Z,27.70
2019-04-20T12:01:29.015Z,26.70
2019-04-20T12:04:01.704Z,28.10
2019-04-20T12:06:25.230Z,27.80
2019-04-20T12:08:54.986Z,27.50
2019-04-20T12:11:33.927Z,28.00
2019-04-20T12:13:54.517Z,26.50
2019-04-20T12:16:23.646Z,26.20
2019-04-20T12:18:52.569Z,26.00
2019-04-20T12:21:21.130Z,26.60
2019-04-20T12:23:49.562Z,24.90
2019-04-20T12:26:18.637Z,25.40
2019-04-20T12:28:47.557Z,25.20
2019-04-20T12:31:21.985Z,25.10
2019-04-20T12:33:46.801Z,24.90
2019-04-20T12:36:16.366Z,25.10
2019-04-20T12:38:46.313Z,25.60
2019-04-20T12:41:16.135Z,26.30
2019-04-20T12:43:45.671Z,26.00
2019-04-20T12:46:17.872Z,25.30
2019-04-20T12:48:44.734Z,26.50
2019-04-20T12:51:13.371Z,26.50
2019-04-20T12:53:42.620Z,26.20
2019-04-20T12:56:12.741Z,25.40
2019-04-20T12:58:43.388Z,27.50
2019-04-20T13:01:12.201Z,26.30
2019-04-20T13:03:41.592Z,25.80
2019-04-20T13:06:10.233Z,25.60
2019-04-20T13:08:44.405Z,25.90
2019-04-20T13:11:13.009Z,26.50
2019-04-20T13:14:02.170Z,25.60
2019-04-20T13:16:32.432Z,25.00
2019-04-20T13:19:03.390Z,24.80
2019-04-20T13:21:32.410Z,25.30
2019-04-20T13:24:02.829Z,24.40
2019-04-20T13:26:32.833Z,25.50
2019-04-20T13:29:02.374Z,26.30
2019-04-20T13:31:31.711Z,26.20
2019-04-20T13:34:01.501Z,25.70
2019-04-20T13:36:30.585Z,25.30
2019-04-20T13:38:59.646Z,24.90
2019-04-20T13:41:29.799Z,25.40
2019-04-20T13:44:01.019Z,25.20
2019-04-20T13:46:29.278Z,24.30
2019-04-20T13:48:58.241Z,23.60
2019-04-20T13:51:26.681Z,24.40
2019-04-20T13:53:55.287Z,23.10
2019-04-20T13:56:25.855Z,24.00
2019-04-20T13:58:56.551Z,24.10
2019-04-20T14:01:30.651Z,25.30
2019-04-20T14:04:04.984Z,25.60
2019-04-20T14:06:35.309Z,26.20
2019-04-20T14:09:07.915Z,27.80
2019-04-20T14:11:37.293Z,28.30
2019-04-20T14:14:08.274Z,27.60
2019-04-20T14:16:36.889Z,27.70
2019-04-20T14:19:07.046Z,26.80
2019-04-20T14:21:36.373Z,26.10
2019-04-20T14:24:06.682Z,26.00
2019-04-20T14:26:38.799Z,25.90
2019-04-20T14:29:07.171Z,26.20
2019-04-20T14:31:37.411Z,25.80
2019-04-20T14:34:06.864Z,26.40
2019-04-20T14:36:35.392Z,27.10
2019-04-20T14:39:06.539Z,26.60
2019-04-20T14:41:36.071Z,26.20
2019-04-20T14:44:05.750Z,26.50
2019-04-20T14:46:35.851Z,25.90
2019-04-20T14:49:04.937Z,25.80
2019-04-20T14:51:35.322Z,25.10
2019-04-20T14:54:03.871Z,24.50
2019-04-20T14:56:33.520Z,24.40
2019-04-20T14:59:03.691Z,25.10
2019-04-20T15:01:34.700Z,25.00
2019-04-20T15:04:09.944Z,25.90
2019-04-20T15:06:37.908Z,25.80
2019-04-20T15:09:08.575Z,27.40
2019-04-20T15:11:39.693Z,27.70
2019-04-20T15:14:08.885Z,26.60
2019-04-20T15:16:38.495Z,26.40
2019-04-20T15:19:09.588Z,26.70
2019-04-20T15:21:53.538Z,26.80
2019-04-20T15:24:23.554Z,27.80
2019-04-20T15:26:52.713Z,27.80
2019-04-20T15:29:22.222Z,27.50
2019-04-20T15:31:52.292Z,28.20
2019-04-20T15:34:21.183Z,28.40
2019-04-20T15:36:50.296Z,28.40
2019-04-20T15:39:19.000Z,28.30
2019-04-20T15:41:47.928Z,28.40
2019-04-20T15:44:17.525Z,27.80
2019-04-20T15:46:46.514Z,30.30
2019-04-20T15:49:15.840Z,29.50
2019-04-20T15:51:46.031Z,29.60
2019-04-20T15:54:15.681Z,29.50
2019-04-20T15:56:52.454Z,28.30
2019-04-20T15:59:14.772Z,29.50
2019-04-20T16:01:45.123Z,29.20
2019-04-20T16:04:21.754Z,29.80
2019-04-20T16:06:47.342Z,30.80
2019-04-20T16:09:15.989Z,30.90
2019-04-20T16:11:44.755Z,30.90
2019-04-20T16:14:13.664Z,31.20
2019-04-20T16:16:42.520Z,31.20
2019-04-20T16:19:26.795Z,31.80
2019-04-20T16:21:41.754Z,32.00
2019-04-20T16:24:12.947Z,32.00
2019-04-20T16:26:47.314Z,33.80
2019-04-20T16:29:17.566Z,32.80
2019-04-20T16:31:48.169Z,33.80
2019-04-20T16:34:16.377Z,35.80
2019-04-20T16:36:44.769Z,36.90
2019-04-20T16:39:14.285Z,37.40
2019-04-20T16:41:44.447Z,37.30
2019-04-20T16:44:13.515Z,38.10
2019-04-20T16:46:42.454Z,38.70
2019-04-20T16:49:12.758Z,41.00
2019-04-20T16:51:42.934Z,40.50
2019-04-20T16:54:11.980Z,39.20
2019-04-20T16:56:42.477Z,39.90
2019-04-20T16:59:13.235Z,40.40
2019-04-20T17:01:42.361Z,41.40
2019-04-20T17:04:16.392Z,43.10
2019-04-20T17:06:42.727Z,42.40
2019-04-20T17:09:12.227Z,42.00
2019-04-20T17:11:41.554Z,41.60
2019-04-20T17:14:10.737Z,42.00
2019-04-20T17:16:39.676Z,42.10
2019-04-20T17:19:08.160Z,41.40
2019-04-20T17:21:37.339Z,43.60
2019-04-20T17:24:07.196Z,44.20
2019-04-20T17:26:52.933Z,44.30
2019-04-20T17:29:23.962Z,45.70
2019-04-20T17:31:55.713Z,45.60
2019-04-20T17:34:41.119Z,45.10
2019-04-20T17:36:54.637Z,44.90
2019-04-20T17:39:31.053Z,45.60
2019-04-20T17:42:11.740Z,46.00
2019-04-20T17:44:35.998Z,46.60
2019-04-20T17:47:03.457Z,46.60
2019-04-20T17:49:38.105Z,47.00
2019-04-20T17:52:21.898Z,47.10
2019-04-20T17:54:35.613Z,46.80
2019-04-20T17:57:09.033Z,46.70
2019-04-20T17:59:38.210Z,47.50
2019-04-20T18:07:49.814Z,48.50
2019-04-20T18:10:18.974Z,48.70
2019-04-20T18:12:44.002Z,49.30
2019-04-20T18:15:29.125Z,50.90
2019-04-20T18:18:07.286Z,51.50
2019-04-20T18:20:28.056Z,50.80
2019-04-20T18:22:57.329Z,51.90
2019-04-20T18:25:57.453Z,52.00
2019-04-20T18:28:12.904Z,52.80
2019-04-20T18:30:39.137Z,53.30
2019-04-20T18:33:00.944Z,53.90
2019-04-20T18:35:37.755Z,54.30
2019-04-20T18:38:04.673Z,54.30
2019-04-20T18:40:40.123Z,54.70
2019-04-20T18:43:07.500Z,55.00
2019-04-20T18:45:46.568Z,55.30
2019-04-20T18:48:18.504Z,55.50
2019-04-20T18:50:35.559Z,56.00
2019-04-20T18:53:01.161Z,56.10
2019-04-20T18:55:41.147Z,55.80
2019-04-20T18:57:59.754Z,55.80
2019-04-20T19:00:33.655Z,55.30
2019-04-20T19:03:09.586Z,55.40
2019-04-20T19:05:29.561Z,55.60
2019-04-20T19:08:04.272Z,56.20
2019-04-20T19:10:32.854Z,56.50
2019-04-20T19:13:22.385Z,57.30
2019-04-20T19:16:04.333Z,57.70
2019-04-20T19:18:49.343Z,58.60
2019-04-20T19:21:09.124Z,59.30
2019-04-20T19:23:48.625Z,59.10
2019-04-20T19:26:13.770Z,59.30
2019-04-20T19:28:45.117Z,59.40
2019-04-20T19:31:22.263Z,59.30
2019-04-20T19:34:00.835Z,58.70
2019-04-20T19:36:19.833Z,58.50
2019-04-20T19:38:52.294Z,58.20
2019-04-20T19:41:25.320Z,58.30
2019-04-20T19:43:49.969Z,58.20
2019-04-20T19:48:51.524Z,57.70
2019-04-20T19:51:29.174Z,57.70
2019-04-20T19:53:59.574Z,57.30
2019-04-20T19:56:28.159Z,57.20
2019-04-20T19:58:59.279Z,57.30
2019-04-20T20:01:11.459Z,56.90
2019-04-20T20:03:41.675Z,57.20
2019-04-20T20:06:18.700Z,57.20
2019-04-20T20:08:43.436Z,57.10
2019-04-20T20:11:21.851Z,57.50
2019-04-20T20:13:46.230Z,57.20
2019-04-20T20:16:20.379Z,56.90
2019-04-20T20:18:55.803Z,56.90
2019-04-20T20:21:22.582Z,56.90
2019-04-20T20:23:41.772Z,56.70
2019-04-20T20:26:20.699Z,57.00
2019-04-20T20:28:48.717Z,57.00
2019-04-20T20:31:22.322Z,57.20
2019-04-20T20:33:54.641Z,57.50
2019-04-20T20:36:15.627Z,57.90
2019-04-20T20:38:46.898Z,57.80
2019-04-20T20:41:20.596Z,57.70
2019-04-20T20:43:53.197Z,57.60
2019-04-20T20:46:23.935Z,57.50
2019-04-20T20:49:06.167Z,57.50
2019-04-20T20:51:39.213Z,57.20
2019-04-20T20:53:54.413Z,56.50
2019-04-20T20:56:22.534Z,55.90
2019-04-20T20:58:54.016Z,55.70
2019-04-20T21:01:21.416Z,55.60
2019-04-20T21:03:46.114Z,55.80
2019-04-20T21:06:14.681Z,55.70
2019-04-20T21:08:48.683Z,56.00
2019-04-20T21:11:20.445Z,56.20
2019-04-20T21:13:48.258Z,56.70
2019-04-20T21:16:20.091Z,56.90
2019-04-20T21:18:59.902Z,56.80
2019-04-20T21:21:28.741Z,57.40
2019-04-20T21:23:53.102Z,57.70
2019-04-20T21:26:23.679Z,57.60
2019-04-20T21:28:45.798Z,58.00
2019-04-20T21:31:21.670Z,57.50
2019-04-20T21:33:44.930Z,58.10
2019-04-20T21:36:21.173Z,58.00
2019-04-20T21:38:45.117Z,57.80
2019-04-20T21:41:16.909Z,57.80
2019-04-20T21:43:46.277Z,58.10
2019-04-20T21:46:14.651Z,57.80
2019-04-20T21:48:57.148Z,58.00
2019-04-20T21:51:27.518Z,58.20
2019-04-20T21:53:44.288Z,58.90
2019-04-20T21:56:12.965Z,59.10
2019-04-20T21:58:49.230Z,59.30
2019-04-20T22:01:22.138Z,59.70
2019-04-20T22:03:44.734Z,60.10
2019-04-20T22:06:14.056Z,60.00
2019-04-20T22:08:45.926Z,60.40
2019-04-20T22:11:13.630Z,61.20
2019-04-20T22:13:44.620Z,60.60
2019-04-20T22:16:14.363Z,60.80
2019-04-20T22:18:51.854Z,60.90
2019-04-20T22:21:21.353Z,61.30
2019-04-20T22:23:59.762Z,61.00
2019-04-20T22:26:26.341Z,61.00
2019-04-20T22:28:44.595Z,61.50
2019-04-20T22:31:14.135Z,61.10
2019-04-20T22:33:45.080Z,62.00
2019-04-20T22:36:14.542Z,62.20
2019-04-20T22:38:58.127Z,62.20
2019-04-20T22:41:26.516Z,62.20
2019-04-20T22:43:56.661Z,62.00
2019-04-20T22:46:31.816Z,62.30
2019-04-20T22:49:18.949Z,62.20
2019-04-20T22:51:40.256Z,62.60
2019-04-20T22:54:14.593Z,63.30
2019-04-20T22:56:39.720Z,63.70
2019-04-20T22:59:04.237Z,64.20
2019-04-20T23:01:35.660Z,64.20
2019-04-20T23:03:57.293Z,64.70
2019-04-20T23:06:33.394Z,65.30
2019-04-20T23:09:03.160Z,65.60
2019-04-20T23:11:30.018Z,66.10
2019-04-20T23:13:56.222Z,66.50
2019-04-20T23:16:27.948Z,66.80
2019-04-20T23:18:56.174Z,66.90
2019-04-20T23:21:25.877Z,67.20
2019-04-20T23:24:02.696Z,66.70
2019-04-20T23:26:31.297Z,66.70
2019-04-20T23:28:58.641Z,67.10
2019-04-20T23:31:27.351Z,68.20
2019-04-20T23:33:56.131Z,68.10
2019-04-20T23:36:33.913Z,67.90
2019-04-20T23:38:59.235Z,68.00
2019-04-20T23:41:25.995Z,67.90
2019-04-20T23:44:08.246Z,68.10
2019-04-20T23:46:45.789Z,67.90
2019-04-20T23:49:26.051Z,68.10
2019-04-20T23:52:09.838Z,68.30
2019-04-20T23:54:27.432Z,68.10
2019-04-20T23:56:53.473Z,67.90
2019-04-20T23:59:27.797Z,67.70
